createdAt,value
2023-05-06T00:01:26.725Z,6.17
2023-05-06T00:03:55.033Z,6.40
2023-05-06T00:06:24.661Z,7.20
2023-05-06T00:08:52.763Z,7.53
2023-05-06T00:11:21.037Z,6.90
2023-05-06T00:13:49.143Z,7.50
2023-05-06T00:16:17.392Z,7.93
2023-05-06T00:18:45.538Z,8.30
2023-05-06T00:21:13.644Z,4.90
2023-05-06T00:23:43.100Z,7.90
2023-05-06T00:26:11.375Z,6.47
2023-05-06T00:28:39.498Z,9.67
2023-05-06T00:31:09.749Z,6.20
2023-05-06T00:33:37.849Z,7.57
2023-05-06T00:36:06.366Z,7.90
2023-05-06T00:38:34.616Z,7.03
2023-05-06T00:41:04.378Z,5.70
2023-05-06T00:43:32.445Z,5.87
2023-05-06T00:46:01.064Z,9.53
2023-05-06T00:48:29.684Z,6.57
2023-05-06T00:50:57.835Z,6.63
2023-05-06T00:53:26.011Z,5.80
2023-05-06T00:55:54.229Z,6.30
2023-05-06T00:58:23.761Z,6.83
2023-05-06T01:00:52.461Z,8.33
2023-05-06T01:03:20.990Z,5.57
2023-05-06T01:05:59.881Z,11.83
2023-05-06T01:08:33.560Z,6.37
2023-05-06T01:11:10.849Z,7.10
2023-05-06T01:13:48.118Z,7.77
2023-05-06T01:16:19.129Z,11.53
2023-05-06T01:18:48.872Z,6.20
2023-05-06T01:21:18.468Z,7.10
2023-05-06T01:23:55.268Z,6.67
2023-05-06T01:26:23.397Z,5.97
2023-05-06T01:28:51.644Z,6.97
2023-05-06T01:31:26.589Z,5.70
2023-05-06T01:34:09.683Z,5.57
2023-05-06T01:36:43.366Z,6.80
2023-05-06T01:39:17.929Z,5.70
2023-05-06T01:41:48.391Z,5.63
2023-05-06T01:44:17.429Z,5.30
2023-05-06T01:46:47.155Z,6.60
2023-05-06T01:49:18.015Z,4.93
2023-05-06T01:51:49.244Z,6.10
2023-05-06T01:54:19.258Z,6.30
2023-05-06T01:56:47.619Z,5.57
2023-05-06T01:59:15.682Z,5.77
2023-05-06T02:01:43.824Z,6.03
2023-05-06T02:04:12.107Z,5.60
2023-05-06T02:06:40.193Z,4.40
2023-05-06T02:09:08.282Z,5.90
2023-05-06T02:11:37.711Z,7.17
2023-05-06T02:14:05.821Z,6.70
2023-05-06T02:16:33.964Z,5.30
2023-05-06T02:19:02.066Z,5.93
2023-05-06T02:21:31.189Z,8.90
2023-05-06T02:23:59.281Z,5.20
2023-05-06T02:26:27.605Z,5.70
2023-05-06T02:28:57.085Z,6.00
2023-05-06T02:31:25.180Z,5.90
2023-05-06T02:33:53.408Z,5.50
2023-05-06T02:36:21.538Z,5.80
2023-05-06T02:38:49.566Z,5.50
2023-05-06T02:41:17.639Z,6.53
2023-05-06T02:43:45.745Z,5.20
2023-05-06T02:46:15.218Z,5.23
2023-05-06T02:48:43.309Z,9.00
2023-05-06T02:51:11.659Z,5.10
2023-05-06T02:53:39.756Z,5.33
2023-05-06T02:56:08.203Z,6.83
2023-05-06T02:58:36.279Z,5.43
2023-05-06T03:01:04.383Z,7.17
2023-05-06T03:03:34.895Z,6.23
2023-05-06T03:06:02.996Z,5.73
2023-05-06T03:08:31.163Z,8.00
2023-05-06T03:10:59.489Z,4.90
2023-05-06T03:13:27.528Z,6.17
2023-05-06T03:15:55.684Z,8.60
2023-05-06T03:18:24.102Z,6.07
2023-05-06T03:20:53.548Z,7.67
2023-05-06T03:23:21.635Z,6.20
2023-05-06T03:25:49.680Z,5.17
2023-05-06T03:28:17.736Z,5.80
2023-05-06T03:30:45.897Z,7.77
2023-05-06T03:33:13.972Z,7.90
2023-05-06T03:35:42.087Z,6.50
2023-05-06T03:38:11.561Z,5.40
2023-05-06T03:40:39.696Z,6.67
2023-05-06T03:43:07.807Z,6.40
2023-05-06T03:45:35.931Z,5.53
2023-05-06T03:48:04.177Z,5.90
2023-05-06T03:50:32.633Z,6.00
2023-05-06T03:53:00.711Z,5.20
2023-05-06T03:55:30.240Z,5.00
2023-05-06T03:57:58.322Z,6.13
2023-05-06T04:00:26.641Z,5.30
2023-05-06T04:02:54.816Z,6.10
2023-05-06T04:05:22.919Z,5.53
2023-05-06T04:07:51.094Z,6.07
2023-05-06T04:10:19.211Z,12.30
2023-05-06T04:12:48.696Z,5.17
2023-05-06T04:15:16.794Z,5.80
2023-05-06T04:17:44.922Z,7.80
2023-05-06T04:20:14.420Z,6.93
2023-05-06T04:22:42.471Z,5.43
2023-05-06T04:25:12.078Z,8.60
2023-05-06T04:27:40.412Z,5.00
2023-05-06T04:30:11.189Z,9.17
2023-05-06T04:32:40.556Z,5.40
2023-05-06T04:35:10.118Z,4.43
2023-05-06T04:37:38.386Z,7.20
2023-05-06T04:40:09.329Z,5.60
2023-05-06T04:42:38.026Z,5.57
2023-05-06T04:45:06.990Z,6.73
2023-05-06T04:47:36.828Z,6.17
2023-05-06T04:50:05.501Z,8.50
2023-05-06T04:52:33.579Z,6.43
2023-05-06T04:55:01.644Z,6.90
2023-05-06T04:57:29.729Z,5.90
2023-05-06T04:59:57.841Z,5.93
2023-05-06T05:02:26.008Z,6.80
2023-05-06T05:04:55.487Z,8.43
2023-05-06T05:07:23.579Z,7.13
2023-05-06T05:09:51.638Z,6.77
2023-05-06T05:12:19.691Z,5.23
2023-05-06T05:14:48.408Z,8.47
2023-05-06T05:17:16.572Z,8.20
2023-05-06T05:19:44.769Z,5.67
2023-05-06T05:22:14.217Z,7.10
2023-05-06T05:24:42.581Z,5.13
2023-05-06T05:27:10.904Z,7.10
2023-05-06T05:29:39.831Z,5.93
2023-05-06T05:32:07.981Z,5.63
2023-05-06T05:34:36.226Z,6.00
2023-05-06T05:37:04.288Z,4.77
2023-05-06T05:39:33.746Z,5.43
2023-05-06T05:42:02.378Z,5.40
2023-05-06T05:44:30.530Z,7.80
2023-05-06T05:46:58.557Z,5.53
2023-05-06T05:49:26.602Z,5.57
2023-05-06T05:51:54.698Z,6.90
2023-05-06T05:54:22.733Z,4.93
2023-05-06T05:56:52.194Z,5.90
2023-05-06T05:59:20.272Z,5.10
2023-05-06T06:01:48.364Z,5.10
2023-05-06T06:04:16.484Z,7.20
2023-05-06T06:06:44.587Z,5.03
2023-05-06T06:09:13.042Z,9.27
2023-05-06T06:11:41.271Z,7.23
2023-05-06T06:14:11.301Z,6.27
2023-05-06T06:16:39.619Z,8.93
2023-05-06T06:19:07.814Z,6.90
2023-05-06T06:21:35.939Z,6.90
2023-05-06T06:24:04.199Z,6.70
2023-05-06T06:26:32.238Z,5.30
2023-05-06T06:29:00.598Z,7.30
2023-05-06T06:31:30.401Z,6.30
2023-05-06T06:33:58.482Z,7.03
2023-05-06T06:36:26.685Z,6.27
2023-05-06T06:38:54.718Z,6.00
2023-05-06T06:41:22.780Z,6.47
2023-05-06T06:43:50.902Z,7.17
2023-05-06T06:46:19.212Z,6.87
2023-05-06T06:48:49.104Z,6.23
2023-05-06T06:51:17.186Z,6.33
2023-05-06T06:53:45.239Z,6.37
2023-05-06T06:56:13.361Z,6.73
2023-05-06T06:58:41.520Z,9.13
2023-05-06T07:01:11.302Z,8.20
2023-05-06T07:03:39.463Z,9.03
2023-05-06T07:06:10.105Z,9.03
2023-05-06T07:08:38.164Z,15.40
2023-05-06T07:11:06.357Z,15.30
2023-05-06T07:13:34.462Z,14.90
2023-05-06T07:16:02.569Z,36.73
2023-05-06T07:18:30.764Z,27.20
2023-05-06T07:20:58.913Z,18.27
2023-05-06T07:23:29.460Z,18.40
2023-05-06T07:25:59.654Z,25.43
2023-05-06T07:28:27.795Z,22.07
2023-05-06T07:30:55.962Z,22.70
2023-05-06T07:33:24.070Z,18.20
2023-05-06T07:35:53.751Z,21.27
2023-05-06T07:38:22.957Z,18.63
2023-05-06T07:40:53.010Z,19.50
2023-05-06T07:43:21.097Z,21.17
2023-05-06T07:45:49.212Z,17.50
2023-05-06T07:48:19.944Z,16.13
2023-05-06T07:50:48.430Z,17.23
2023-05-06T07:53:16.472Z,25.17
2023-05-06T07:55:44.574Z,27.10
2023-05-06T07:58:14.038Z,26.07
2023-05-06T08:00:42.242Z,20.90
2023-05-06T08:03:10.395Z,22.87
2023-05-06T08:05:38.530Z,19.63
2023-05-06T08:08:06.943Z,19.20
2023-05-06T08:10:35.330Z,21.33
2023-05-06T08:13:03.441Z,24.07
2023-05-06T08:15:32.942Z,22.80
2023-05-06T08:18:13.840Z,22.60
2023-05-06T08:20:49.047Z,20.30
2023-05-06T08:23:17.154Z,41.20
2023-05-06T08:25:45.997Z,22.43
2023-05-06T08:28:14.139Z,18.80
2023-05-06T08:30:44.785Z,24.07
2023-05-06T08:33:12.836Z,18.30
2023-05-06T08:35:41.014Z,19.80
2023-05-06T08:38:09.127Z,21.33
2023-05-06T08:40:43.808Z,19.73
2023-05-06T08:43:14.373Z,19.13
2023-05-06T08:45:44.032Z,18.80
2023-05-06T08:48:12.271Z,17.70
2023-05-06T08:50:43.232Z,15.87
2023-05-06T08:53:13.126Z,16.27
2023-05-06T08:55:43.391Z,18.73
2023-05-06T08:58:15.682Z,18.30
2023-05-06T09:00:47.026Z,15.87
2023-05-06T09:03:16.515Z,15.87
2023-05-06T09:05:44.708Z,17.33
2023-05-06T09:08:13.154Z,16.40
2023-05-06T09:10:46.161Z,19.93
2023-05-06T09:13:15.292Z,16.20
2023-05-06T09:15:47.283Z,17.30
2023-05-06T09:18:16.438Z,12.13
2023-05-06T09:20:46.460Z,13.60
2023-05-06T09:23:16.374Z,14.13
2023-05-06T09:25:45.884Z,12.87
2023-05-06T09:28:15.258Z,12.67
2023-05-06T09:30:47.490Z,12.23
2023-05-06T09:33:15.874Z,12.80
2023-05-06T09:35:45.759Z,13.07
2023-05-06T09:38:13.889Z,16.40
2023-05-06T09:40:41.949Z,14.17
2023-05-06T09:43:10.706Z,12.33
2023-05-06T09:45:38.776Z,10.60
2023-05-06T09:48:10.243Z,13.70
2023-05-06T09:50:38.456Z,11.20
2023-05-06T09:53:07.543Z,14.53
2023-05-06T09:55:36.724Z,16.80
2023-05-06T09:58:06.640Z,14.90
2023-05-06T10:00:36.115Z,14.83
2023-05-06T10:03:05.934Z,16.13
2023-05-06T10:05:36.417Z,14.13
2023-05-06T10:08:05.266Z,14.43
2023-05-06T10:10:34.925Z,17.00
2023-05-06T10:13:04.431Z,15.10
2023-05-06T10:15:34.165Z,14.80
2023-05-06T10:18:02.740Z,15.83
2023-05-06T10:20:32.513Z,12.63
2023-05-06T10:23:09.804Z,13.87
2023-05-06T10:25:39.724Z,13.23
2023-05-06T10:28:13.397Z,20.80
2023-05-06T10:30:52.925Z,11.03
2023-05-06T10:33:24.207Z,10.97
2023-05-06T10:36:02.002Z,12.57
2023-05-06T10:38:35.887Z,14.17
2023-05-06T10:41:04.814Z,13.70
2023-05-06T10:43:34.178Z,13.80
2023-05-06T10:46:04.780Z,12.83
2023-05-06T10:48:34.022Z,12.87
2023-05-06T10:51:25.127Z,15.07
2023-05-06T10:54:05.650Z,13.43
2023-05-06T10:56:34.880Z,12.87
2023-05-06T10:59:07.874Z,13.43
2023-05-06T11:01:36.550Z,15.53
2023-05-06T11:04:09.537Z,13.87
2023-05-06T11:06:40.578Z,16.97
2023-05-06T11:09:17.873Z,15.10
2023-05-06T11:11:51.684Z,15.00
2023-05-06T11:14:34.328Z,14.57
2023-05-06T11:17:04.009Z,14.80
2023-05-06T11:19:33.592Z,15.83
2023-05-06T11:22:03.796Z,14.23
2023-05-06T11:24:40.702Z,14.43
2023-05-06T11:27:09.777Z,17.17
2023-05-06T11:29:38.305Z,13.73
2023-05-06T11:32:20.810Z,17.53
2023-05-06T11:34:48.946Z,11.53
2023-05-06T11:37:26.057Z,11.63
2023-05-06T11:39:55.702Z,13.57
2023-05-06T11:42:27.847Z,12.07
2023-05-06T11:44:56.592Z,12.13
2023-05-06T11:47:25.180Z,11.03
2023-05-06T11:49:55.845Z,10.40
2023-05-06T11:52:24.049Z,9.70
2023-05-06T11:54:53.912Z,10.30
2023-05-06T11:57:23.358Z,10.57
2023-05-06T11:59:55.184Z,9.77
2023-05-06T12:02:23.323Z,7.80
2023-05-06T12:04:52.638Z,11.37
2023-05-06T12:07:21.068Z,10.40
2023-05-06T12:09:50.963Z,9.90
2023-05-06T12:12:22.390Z,10.50
2023-05-06T12:14:54.041Z,9.53
2023-05-06T12:17:22.306Z,14.30
2023-05-06T12:19:51.077Z,13.87
2023-05-06T12:22:20.551Z,10.70
2023-05-06T12:24:49.595Z,14.10
2023-05-06T12:27:30.565Z,17.00
2023-05-06T12:30:00.631Z,10.37
2023-05-06T12:32:28.737Z,11.50
2023-05-06T12:34:56.889Z,10.30
2023-05-06T12:37:30.660Z,8.80
2023-05-06T12:39:59.686Z,12.30
2023-05-06T12:42:28.262Z,12.20
2023-05-06T12:44:56.800Z,11.80
2023-05-06T12:47:27.282Z,10.00
2023-05-06T12:49:58.326Z,13.50
2023-05-06T12:52:28.673Z,12.93
2023-05-06T12:54:57.376Z,10.00
2023-05-06T12:57:26.201Z,14.07
2023-05-06T12:59:56.283Z,9.60
2023-05-06T13:02:26.077Z,10.70
2023-05-06T13:04:54.172Z,9.43
2023-05-06T13:07:22.567Z,11.63
2023-05-06T13:09:50.732Z,10.83
2023-05-06T13:12:18.999Z,14.90
2023-05-06T13:14:47.057Z,10.00
2023-05-06T13:17:15.724Z,10.53
2023-05-06T13:19:45.275Z,8.80
2023-05-06T13:22:13.368Z,13.20
2023-05-06T13:24:41.562Z,12.90
2023-05-06T13:27:09.691Z,11.37
2023-05-06T13:29:37.753Z,12.13
2023-05-06T13:32:08.584Z,8.83
2023-05-06T13:34:37.212Z,8.97
2023-05-06T13:37:06.950Z,8.50
2023-05-06T13:39:35.001Z,10.17
2023-05-06T13:42:06.057Z,8.70
2023-05-06T13:44:35.904Z,11.63
2023-05-06T13:47:04.032Z,9.83
2023-05-06T13:49:32.092Z,8.70
2023-05-06T13:52:00.221Z,9.13
2023-05-06T13:54:29.624Z,10.50
2023-05-06T13:56:58.242Z,9.77
2023-05-06T13:59:26.416Z,9.10
2023-05-06T14:01:55.927Z,10.10
2023-05-06T14:04:24.197Z,10.57
2023-05-06T14:06:52.338Z,10.13
2023-05-06T14:09:20.434Z,11.43
2023-05-06T14:11:49.923Z,10.53
2023-05-06T14:14:17.991Z,12.80
2023-05-06T14:16:46.103Z,9.73
2023-05-06T14:19:14.219Z,10.50
2023-05-06T14:21:42.265Z,8.73
2023-05-06T14:24:12.457Z,8.00
2023-05-06T14:26:41.498Z,8.10
2023-05-06T14:29:11.043Z,10.13
2023-05-06T14:31:39.180Z,8.63
2023-05-06T14:34:07.252Z,9.73
2023-05-06T14:36:35.353Z,9.83
2023-05-06T14:39:03.441Z,7.87
2023-05-06T14:41:31.792Z,9.13
2023-05-06T14:43:59.863Z,10.00
2023-05-06T14:46:29.841Z,9.40
2023-05-06T14:48:58.020Z,11.27
2023-05-06T14:51:26.137Z,8.20
2023-05-06T14:53:54.207Z,11.60
2023-05-06T14:56:22.353Z,7.13
2023-05-06T14:58:50.443Z,9.27
2023-05-06T15:01:18.592Z,8.90
2023-05-06T15:03:48.128Z,9.03
2023-05-06T15:06:16.215Z,9.13
2023-05-06T15:08:44.324Z,9.60
2023-05-06T15:11:12.576Z,8.50
2023-05-06T15:13:40.679Z,7.63
2023-05-06T15:16:11.234Z,8.67
2023-05-06T15:18:41.771Z,8.33
2023-05-06T15:21:13.304Z,8.37
2023-05-06T15:23:41.475Z,10.30
2023-05-06T15:26:09.560Z,9.27
2023-05-06T15:28:37.624Z,9.37
2023-05-06T15:31:05.774Z,7.60
2023-05-06T15:33:33.852Z,9.80
2023-05-06T15:36:02.063Z,7.50
2023-05-06T15:38:59.106Z,7.77
2023-05-06T15:41:29.247Z,8.43
2023-05-06T15:43:58.488Z,7.40
2023-05-06T15:46:26.724Z,8.63
2023-05-06T15:49:17.405Z,7.70
2023-05-06T15:51:43.024Z,8.63
2023-05-06T15:54:13.135Z,7.67
2023-05-06T15:56:41.769Z,9.77
2023-05-06T15:59:10.073Z,7.97
2023-05-06T16:04:09.253Z,9.10
2023-05-06T16:06:37.724Z,7.53
2023-05-06T16:09:05.844Z,8.30
2023-05-06T16:11:35.299Z,9.03
2023-05-06T16:14:03.396Z,8.30
2023-05-06T16:16:31.550Z,10.03
2023-05-06T16:18:59.684Z,9.00
2023-05-06T16:21:28.711Z,6.90
2023-05-06T16:23:56.800Z,6.00
2023-05-06T16:26:25.130Z,7.90
2023-05-06T16:28:54.780Z,6.00
2023-05-06T16:31:23.197Z,7.00
2023-05-06T16:33:51.279Z,7.30
2023-05-06T16:36:19.485Z,11.37
2023-05-06T16:38:47.620Z,8.03
2023-05-06T16:41:15.768Z,6.47
2023-05-06T16:43:43.802Z,5.77
2023-05-06T16:46:13.320Z,6.80
2023-05-06T16:48:41.416Z,8.30
2023-05-06T16:51:10.324Z,5.90
2023-05-06T16:53:38.418Z,7.83
2023-05-06T16:56:07.061Z,9.17
2023-05-06T16:58:35.172Z,7.70
2023-05-06T17:01:04.016Z,12.03
2023-05-06T17:03:33.632Z,6.23
2023-05-06T17:06:01.791Z,7.03
2023-05-06T17:08:35.722Z,8.73
2023-05-06T17:11:07.289Z,7.27
2023-05-06T17:13:35.537Z,8.87
2023-05-06T17:16:03.604Z,9.63
2023-05-06T17:18:33.051Z,7.20
2023-05-06T17:21:02.117Z,10.13
2023-05-06T17:23:30.244Z,7.37
2023-05-06T17:25:58.333Z,6.77
2023-05-06T17:28:26.733Z,9.60
2023-05-06T17:30:54.835Z,7.90
2023-05-06T17:33:23.039Z,13.13
2023-05-06T17:35:52.467Z,13.77
2023-05-06T17:38:20.540Z,14.33
2023-05-06T17:40:48.701Z,15.53
2023-05-06T17:43:16.776Z,12.90
2023-05-06T17:45:44.833Z,19.30
2023-05-06T17:48:12.984Z,11.20
2023-05-06T17:50:41.271Z,13.80
2023-05-06T17:53:10.762Z,13.10
2023-05-06T17:55:38.872Z,12.80
2023-05-06T17:58:06.959Z,12.43
2023-05-06T18:00:35.056Z,11.40
2023-05-06T18:03:03.290Z,12.90
2023-05-06T18:05:31.397Z,11.30
2023-05-06T18:07:59.650Z,13.37
2023-05-06T18:10:29.474Z,11.47
2023-05-06T18:12:57.751Z,11.70
2023-05-06T18:15:27.378Z,12.90
2023-05-06T18:17:55.557Z,10.50
2023-05-06T18:20:23.728Z,11.40
2023-05-06T18:22:51.786Z,10.67
2023-05-06T18:25:20.238Z,10.90
2023-05-06T18:27:49.785Z,11.40
2023-05-06T18:30:18.018Z,11.37
2023-05-06T18:32:46.437Z,14.90
2023-05-06T18:35:15.386Z,11.73
2023-05-06T18:37:43.447Z,11.70
2023-05-06T18:40:12.792Z,13.63
2023-05-06T18:42:40.872Z,11.20
2023-05-06T18:45:11.704Z,10.40
2023-05-06T18:47:40.349Z,15.47
2023-05-06T18:50:09.605Z,19.33
2023-05-06T18:52:37.874Z,13.73
2023-05-06T18:55:07.450Z,11.07
2023-05-06T18:57:35.627Z,10.53
2023-05-06T19:00:07.169Z,10.30
2023-05-06T19:02:37.843Z,11.63
2023-05-06T19:05:06.633Z,10.70
2023-05-06T19:07:34.718Z,21.23
2023-05-06T19:10:02.794Z,13.40
2023-05-06T19:12:31.597Z,10.90
2023-05-06T19:15:00.083Z,10.93
2023-05-06T19:17:28.756Z,13.20
2023-05-06T19:19:58.226Z,11.83
2023-05-06T19:22:26.381Z,11.00
2023-05-06T19:24:54.600Z,11.67
2023-05-06T19:27:23.933Z,11.10
2023-05-06T19:29:52.002Z,11.67
2023-05-06T19:32:20.887Z,20.57
2023-05-06T19:34:49.005Z,14.90
2023-05-06T19:37:18.400Z,245.60
2023-05-06T19:39:47.596Z,636.07
2023-05-06T19:42:15.857Z,758.73
2023-05-06T19:44:43.919Z,471.87
2023-05-06T19:47:12.711Z,320.80
2023-05-06T19:49:40.751Z,523.80
2023-05-06T19:52:08.796Z,881.20
2023-05-06T19:54:38.306Z,471.00
2023-05-06T19:57:06.482Z,515.77
2023-05-06T19:59:34.627Z,527.47
2023-05-06T20:02:02.773Z,300.90
2023-05-06T20:04:31.018Z,106.47
2023-05-06T20:06:59.043Z,69.03
2023-05-06T20:09:27.089Z,35.40
2023-05-06T20:11:56.521Z,37.93
2023-05-06T20:14:24.653Z,44.83
2023-05-06T20:16:53.157Z,29.60
2023-05-06T20:19:23.785Z,39.80
2023-05-06T20:21:52.331Z,1007.57
2023-05-06T20:24:20.361Z,505.37
2023-05-06T20:26:48.462Z,142.80
2023-05-06T20:29:18.075Z,40.57
2023-05-06T20:31:47.580Z,54.00
2023-05-06T20:34:15.816Z,54.43
2023-05-06T20:36:44.392Z,170.70
2023-05-06T20:39:12.906Z,244.03
2023-05-06T20:41:40.995Z,571.67
2023-05-06T20:44:09.481Z,414.37
2023-05-06T20:46:39.221Z,200.20
2023-05-06T20:49:07.869Z,109.20
2023-05-06T20:51:36.200Z,83.33
2023-05-06T20:54:04.317Z,53.30
2023-05-06T20:56:32.440Z,102.10
2023-05-06T20:59:00.500Z,70.87
2023-05-06T21:01:30.110Z,563.07
2023-05-06T21:04:01.421Z,115.20
2023-05-06T21:06:29.472Z,35.27
2023-05-06T21:08:58.028Z,76.13
2023-05-06T21:11:28.608Z,44.63
2023-05-06T21:13:57.008Z,39.33
2023-05-06T21:16:25.083Z,32.13
2023-05-06T21:18:53.136Z,23.67
2023-05-06T21:21:24.812Z,26.90
2023-05-06T21:23:52.888Z,22.10
2023-05-06T21:26:21.521Z,26.73
2023-05-06T21:28:51.937Z,26.80
2023-05-06T21:31:21.171Z,21.43
2023-05-06T21:33:49.409Z,18.63
2023-05-06T21:36:17.513Z,23.30
2023-05-06T21:38:49.324Z,16.37
2023-05-06T21:41:17.396Z,17.80
2023-05-06T21:43:45.457Z,16.80
2023-05-06T21:46:13.545Z,20.20
2023-05-06T21:48:41.884Z,17.10
2023-05-06T21:51:09.957Z,15.43
2023-05-06T21:53:37.999Z,17.63
2023-05-06T21:56:07.724Z,15.83
2023-05-06T21:58:35.814Z,18.50
2023-05-06T22:01:03.961Z,18.47
2023-05-06T22:03:32.106Z,16.60
2023-05-06T22:06:00.247Z,19.37
2023-05-06T22:08:29.879Z,17.10
2023-05-06T22:10:58.035Z,18.40
2023-05-06T22:13:27.995Z,17.37
2023-05-06T22:15:56.319Z,17.20
2023-05-06T22:18:24.460Z,15.20
2023-05-06T22:20:52.568Z,16.77
2023-05-06T22:23:23.029Z,16.40
2023-05-06T22:25:51.919Z,22.23
2023-05-06T22:28:20.007Z,14.97
2023-05-06T22:30:49.483Z,19.43
2023-05-06T22:33:17.749Z,14.77
2023-05-06T22:35:45.942Z,20.03
2023-05-06T22:38:13.974Z,16.33
2023-05-06T22:40:42.049Z,16.67
2023-05-06T22:43:10.137Z,15.47
2023-05-06T22:45:38.281Z,17.43
2023-05-06T22:48:08.022Z,14.90
2023-05-06T22:50:36.397Z,20.30
2023-05-06T22:53:13.724Z,20.90
2023-05-06T22:55:43.476Z,18.00
2023-05-06T22:58:11.585Z,14.43
2023-05-06T23:00:41.005Z,10.47
2023-05-06T23:03:10.711Z,9.50
2023-05-06T23:05:38.852Z,8.07
2023-05-06T23:08:07.124Z,8.07
2023-05-06T23:10:35.186Z,12.90
2023-05-06T23:13:03.460Z,11.27
2023-05-06T23:15:31.669Z,10.97
2023-05-06T23:17:59.817Z,10.17
2023-05-06T23:20:29.306Z,10.00
2023-05-06T23:22:57.374Z,9.70
2023-05-06T23:25:25.454Z,8.27
2023-05-06T23:27:53.513Z,9.80
2023-05-06T23:30:21.597Z,8.77
2023-05-06T23:32:49.832Z,7.47
2023-05-06T23:35:18.042Z,7.30
2023-05-06T23:37:47.496Z,8.67
2023-05-06T23:40:16.895Z,7.57
2023-05-06T23:42:44.966Z,7.60
2023-05-06T23:45:13.601Z,6.60
2023-05-06T23:47:42.201Z,9.00
2023-05-06T23:50:11.152Z,5.90
2023-05-06T23:52:39.636Z,6.03
2023-05-06T23:55:09.854Z,7.60
2023-05-06T23:57:38.122Z,6.30
